createdAt,value
2018-09-02T00:01:30.080Z,7.90
2018-09-02T00:03:58.291Z,8.00
2018-09-02T00:06:26.431Z,6.77
2018-09-02T00:08:54.598Z,7.50
2018-09-02T00:11:22.816Z,7.37
2018-09-02T00:13:51.008Z,7.40
2018-09-02T00:16:19.254Z,7.73
2018-09-02T00:18:47.348Z,7.40
2018-09-02T00:21:15.569Z,7.90
2018-09-02T00:23:43.787Z,7.77
2018-09-02T00:26:11.935Z,9.00
2018-09-02T00:28:40.139Z,8.83
2018-09-02T00:31:08.402Z,10.17
2018-09-02T00:33:36.678Z,10.17
2018-09-02T00:36:04.865Z,10.53
2018-09-02T00:38:33.132Z,10.37
2018-09-02T00:41:01.396Z,10.27
2018-09-02T00:43:29.705Z,10.20
2018-09-02T00:45:57.838Z,8.30
2018-09-02T00:48:26.132Z,8.70
2018-09-02T00:50:54.320Z,8.47
2018-09-02T00:53:22.513Z,8.60
2018-09-02T00:55:50.782Z,7.90
2018-09-02T00:58:18.946Z,7.83
2018-09-02T01:00:47.124Z,7.90
2018-09-02T01:03:15.430Z,7.70
2018-09-02T01:05:43.620Z,7.67
2018-09-02T01:08:11.757Z,7.37
2018-09-02T01:10:40.092Z,7.03
2018-09-02T01:13:08.313Z,7.50
2018-09-02T01:15:36.474Z,7.13
2018-09-02T01:18:04.651Z,7.50
2018-09-02T01:20:32.829Z,7.20
2018-09-02T01:23:01.161Z,6.40
2018-09-02T01:25:29.470Z,7.60
2018-09-02T01:27:57.664Z,7.07
2018-09-02T01:30:25.913Z,7.33
2018-09-02T01:32:54.108Z,6.67
2018-09-02T01:35:27.609Z,7.37
2018-09-02T01:37:55.796Z,7.80
2018-09-02T01:40:23.991Z,7.57
2018-09-02T01:42:52.148Z,7.37
2018-09-02T01:45:20.424Z,7.63
2018-09-02T01:47:48.810Z,7.83
2018-09-02T01:50:17.184Z,7.70
2018-09-02T01:52:45.378Z,10.10
2018-09-02T01:55:13.657Z,7.47
2018-09-02T01:57:41.873Z,8.13
2018-09-02T02:00:10.092Z,7.17
2018-09-02T02:02:38.486Z,7.67
2018-09-02T02:05:06.721Z,7.28
2018-09-02T02:07:34.929Z,6.83
2018-09-02T02:10:03.162Z,6.87
2018-09-02T02:12:31.408Z,8.23
2018-09-02T02:32:00.767Z,7.07
2018-09-02T02:34:29.117Z,7.00
2018-09-02T02:36:57.334Z,7.07
2018-09-02T02:39:25.536Z,7.40
2018-09-02T02:41:53.828Z,7.30
2018-09-02T02:44:22.075Z,7.33
2018-09-02T02:46:50.242Z,7.50
2018-09-02T02:49:18.481Z,7.43
2018-09-02T02:51:46.742Z,6.83
2018-09-02T02:54:14.914Z,7.23
2018-09-02T02:56:43.170Z,7.05
2018-09-02T02:59:11.317Z,6.97
2018-09-02T03:01:39.520Z,7.27
2018-09-02T03:04:07.748Z,7.20
2018-09-02T03:06:36.073Z,7.97
2018-09-02T03:09:05.350Z,7.47
2018-09-02T03:11:33.659Z,7.70
2018-09-02T03:14:02.088Z,7.17
2018-09-02T03:16:30.288Z,8.07
2018-09-02T03:22:21.033Z,7.00
2018-09-02T03:24:49.238Z,7.20
2018-09-02T03:27:17.442Z,7.33
2018-09-02T03:29:45.607Z,7.13
2018-09-02T03:32:13.820Z,7.30
2018-09-02T03:34:41.977Z,6.83
2018-09-02T03:37:10.320Z,7.17
2018-09-02T03:39:38.721Z,7.30
2018-09-02T03:42:06.959Z,6.90
2018-09-02T03:44:35.125Z,7.73
2018-09-02T03:47:03.468Z,6.77
2018-09-02T03:49:31.646Z,7.23
2018-09-02T03:51:59.872Z,7.33
2018-09-02T03:54:28.076Z,7.63
2018-09-02T03:56:56.320Z,7.77
2018-09-02T03:59:24.841Z,6.97
2018-09-02T04:01:53.064Z,7.65
2018-09-02T04:04:21.417Z,8.07
2018-09-02T04:06:49.649Z,7.72
2018-09-02T04:09:17.856Z,8.00
2018-09-02T04:11:47.501Z,7.50
2018-09-02T04:14:15.747Z,8.00
2018-09-02T04:16:43.902Z,8.03
2018-09-02T04:19:12.053Z,8.53
2018-09-02T04:21:40.249Z,8.30
2018-09-02T04:24:08.454Z,7.63
2018-09-02T04:26:36.630Z,7.97
2018-09-02T04:29:04.936Z,8.20
2018-09-02T04:31:33.149Z,7.77
2018-09-02T04:34:02.247Z,7.80
2018-09-02T04:36:30.560Z,8.30
2018-09-02T04:38:58.829Z,8.00
2018-09-02T04:41:27.129Z,7.20
2018-09-02T04:43:55.363Z,7.58
2018-09-02T04:46:23.621Z,7.60
2018-09-02T04:48:51.798Z,8.10
2018-09-02T04:51:20.287Z,7.40
2018-09-02T04:53:48.454Z,7.80
2018-09-02T04:56:16.767Z,7.77
2018-09-02T04:58:45.006Z,8.00
2018-09-02T05:01:13.229Z,8.50
2018-09-02T05:03:41.392Z,7.47
2018-09-02T05:06:09.630Z,8.07
2018-09-02T05:09:08.437Z,8.07
2018-09-02T05:11:38.559Z,7.35
2018-09-02T05:14:06.827Z,7.97
2018-09-02T05:16:36.106Z,7.33
2018-09-02T05:19:04.290Z,7.28
2018-09-02T05:21:32.519Z,7.73
2018-09-02T05:24:00.912Z,7.60
2018-09-02T05:26:29.281Z,8.73
2018-09-02T05:28:57.444Z,8.45
2018-09-02T05:31:26.023Z,7.90
2018-09-02T05:33:54.304Z,8.20
2018-09-02T05:36:22.864Z,8.07
2018-09-02T05:38:51.216Z,8.60
2018-09-02T05:41:19.440Z,8.93
2018-09-02T05:43:47.675Z,9.13
2018-09-02T05:46:16.009Z,8.95
2018-09-02T05:48:44.273Z,9.87
2018-09-02T05:51:13.159Z,9.27
2018-09-02T05:53:41.376Z,9.83
2018-09-02T05:56:09.637Z,9.07
2018-09-02T05:58:37.937Z,9.53
2018-09-02T06:01:06.163Z,9.17
2018-09-02T06:03:34.485Z,9.18
2018-09-02T06:06:02.977Z,9.47
2018-09-02T06:08:31.355Z,10.72
2018-09-02T06:10:59.569Z,10.10
2018-09-02T06:13:27.792Z,10.87
2018-09-02T06:15:56.222Z,12.00
2018-09-02T06:18:24.513Z,10.80
2018-09-02T06:20:52.698Z,10.78
2018-09-02T06:23:20.962Z,10.60
2018-09-02T06:25:49.332Z,10.58
2018-09-02T06:28:17.827Z,11.87
2018-09-02T06:30:47.581Z,12.03
2018-09-02T06:33:15.878Z,11.30
2018-09-02T06:35:44.096Z,11.03
2018-09-02T06:38:12.344Z,11.60
2018-09-02T06:40:40.812Z,11.43
2018-09-02T06:43:09.283Z,11.10
2018-09-02T06:45:37.682Z,11.53
2018-09-02T06:48:05.983Z,11.47
2018-09-02T06:50:34.292Z,10.80
2018-09-02T06:53:02.569Z,11.50
2018-09-02T06:55:31.309Z,10.93
2018-09-02T06:57:59.523Z,10.70
2018-09-02T07:00:27.721Z,11.63
2018-09-02T07:02:55.977Z,10.70
2018-09-02T07:05:24.312Z,9.93
2018-09-02T07:07:52.557Z,11.33
2018-09-02T07:12:24.776Z,10.77
2018-09-02T07:14:53.262Z,11.07
2018-09-02T07:17:22.014Z,10.80
2018-09-02T07:19:50.864Z,10.83
2018-09-02T07:22:19.560Z,10.73
2018-09-02T07:24:49.232Z,10.47
2018-09-02T07:27:18.367Z,9.90
2018-09-02T07:29:46.885Z,9.73
2018-09-02T07:32:15.305Z,9.43
2018-09-02T07:34:43.667Z,9.37
2018-09-02T07:37:12.237Z,9.73
2018-09-02T07:39:40.716Z,9.57
2018-09-02T07:42:09.422Z,9.77
2018-09-02T07:44:38.739Z,10.50
2018-09-02T07:47:07.365Z,8.50
2018-09-02T07:49:35.986Z,8.60
2018-09-02T07:57:54.698Z,7.37
2018-09-02T08:00:24.129Z,7.77
2018-09-02T08:08:38.363Z,7.10
2018-09-02T08:11:07.011Z,7.73
2018-09-02T08:13:35.551Z,6.33
2018-09-02T10:05:39.710Z,3.50
2018-09-02T10:08:08.035Z,3.35
2018-09-02T10:10:36.567Z,3.12
2018-09-02T10:13:05.153Z,2.92
2018-09-02T10:15:33.302Z,3.92
2018-09-02T10:18:01.808Z,3.17
2018-09-02T10:20:30.598Z,3.40
2018-09-02T10:22:58.826Z,3.40
2018-09-02T10:25:27.078Z,3.20
2018-09-02T10:27:55.479Z,3.02
2018-09-02T10:32:26.863Z,3.44
2018-09-02T10:34:55.206Z,2.45
2018-09-02T10:37:24.404Z,2.75
2018-09-02T10:39:52.994Z,2.72
2018-09-02T10:42:22.426Z,3.15
2018-09-02T10:44:51.180Z,2.60
2018-09-02T10:47:20.441Z,2.35
2018-09-02T10:49:48.871Z,2.77
2018-09-02T10:52:18.378Z,3.08
2018-09-02T10:54:46.675Z,2.67
2018-09-02T10:57:15.128Z,2.40
2018-09-02T10:59:43.831Z,2.58
2018-09-02T11:02:12.260Z,2.58
2018-09-02T11:04:40.815Z,3.00
2018-09-02T11:07:09.335Z,2.83
2018-09-02T11:09:37.805Z,2.62
2018-09-02T11:12:06.450Z,2.40
2018-09-02T11:14:34.686Z,2.25
2018-09-02T11:17:04.563Z,2.58
2018-09-02T11:19:33.121Z,2.42
2018-09-02T11:22:01.704Z,2.50
2018-09-02T11:24:30.318Z,2.25
2018-09-02T11:27:00.275Z,2.35
2018-09-02T11:29:28.665Z,2.40
2018-09-02T11:31:57.088Z,2.27
2018-09-02T11:34:25.786Z,2.40
2018-09-02T11:36:54.303Z,2.30
2018-09-02T11:39:24.501Z,2.55
2018-09-02T11:41:52.930Z,2.50
2018-09-02T11:44:22.419Z,2.30
2018-09-02T11:46:51.040Z,2.50
2018-09-02T11:49:19.503Z,2.45
2018-09-02T11:51:47.813Z,2.50
2018-09-02T11:54:16.871Z,2.27
2018-09-02T11:56:45.274Z,2.92
2018-09-02T11:59:13.654Z,2.50
2018-09-02T12:02:29.271Z,2.27
2018-09-02T12:05:01.238Z,2.80
2018-09-02T12:07:29.527Z,2.00
2018-09-02T12:09:57.840Z,2.33
2018-09-02T12:12:32.761Z,2.65
2018-09-02T12:15:01.029Z,2.30
2018-09-02T12:17:29.417Z,2.60
2018-09-02T12:19:58.091Z,2.27
2018-09-02T12:22:26.447Z,2.55
2018-09-02T12:24:54.733Z,2.72
2018-09-02T12:27:23.714Z,2.90
2018-09-02T12:29:54.156Z,2.65
2018-09-02T12:32:23.438Z,2.60
2018-09-02T12:34:51.931Z,2.12
2018-09-02T12:37:20.346Z,2.85
2018-09-02T12:39:48.838Z,2.30
2018-09-02T12:42:19.356Z,2.12
2018-09-02T12:44:47.824Z,2.30
2018-09-02T12:47:16.444Z,2.17
2018-09-02T12:49:44.726Z,2.52
2018-09-02T12:52:13.047Z,2.60
2018-09-02T12:54:41.849Z,2.40
2018-09-02T12:57:10.046Z,2.10
2018-09-02T12:59:38.350Z,2.30
2018-09-02T13:02:06.544Z,2.25
2018-09-02T13:04:34.767Z,1.98
2018-09-02T13:07:02.978Z,2.62
2018-09-02T13:09:31.165Z,2.22
2018-09-02T13:11:59.515Z,2.52
2018-09-02T13:14:27.781Z,2.27
2018-09-02T13:16:56.097Z,1.92
2018-09-02T13:19:24.276Z,1.92
2018-09-02T13:22:29.861Z,2.22
2018-09-02T13:24:58.505Z,2.37
2018-09-02T13:27:27.145Z,2.50
2018-09-02T13:29:56.020Z,2.27
2018-09-02T13:32:25.037Z,1.80
2018-09-02T13:34:53.442Z,2.12
2018-09-02T13:37:22.696Z,2.10
2018-09-02T13:39:52.400Z,2.10
2018-09-02T13:42:22.193Z,3.40
2018-09-02T13:44:51.296Z,2.50
2018-09-02T13:47:21.653Z,2.27
2018-09-02T13:49:51.468Z,2.22
2018-09-02T13:52:19.987Z,2.50
2018-09-02T13:54:49.488Z,2.00
2018-09-02T13:57:18.755Z,2.25
2018-09-02T13:59:47.461Z,2.10
2018-09-02T14:02:16.945Z,2.27
2018-09-02T14:04:45.386Z,2.23
2018-09-02T16:57:37.865Z,2.45
2018-09-02T17:00:07.197Z,2.40
2018-09-02T17:02:35.639Z,2.42
2018-09-02T17:05:13.257Z,2.37
2018-09-02T17:07:42.272Z,2.12
2018-09-02T17:10:10.585Z,2.77
2018-09-02T17:12:39.114Z,2.50
2018-09-02T17:15:08.105Z,2.80
2018-09-02T17:17:37.171Z,4.17
2018-09-02T17:20:07.199Z,2.40
2018-09-02T17:22:35.539Z,2.10
2018-09-02T17:25:04.532Z,2.37
2018-09-02T17:27:32.936Z,2.17
2018-09-02T17:30:02.026Z,2.70
2018-09-02T17:32:32.482Z,2.15
2018-09-02T17:35:01.490Z,2.47
2018-09-02T17:37:29.712Z,2.57
2018-09-02T17:39:58.085Z,2.53
2018-09-02T17:42:26.459Z,2.57
2018-09-02T17:44:54.846Z,2.23
2018-09-02T17:47:23.047Z,2.33
2018-09-02T17:49:51.549Z,2.20
2018-09-02T17:52:21.775Z,2.53
2018-09-02T18:02:34.116Z,2.15
2018-09-02T18:05:02.525Z,2.10
2018-09-02T18:07:30.910Z,2.27
2018-09-02T18:10:00.263Z,2.10
2018-09-02T18:12:30.306Z,2.00
2018-09-02T18:14:58.857Z,2.30
2018-09-02T18:17:27.289Z,2.33
2018-09-02T18:19:55.576Z,2.10
2018-09-02T18:22:24.105Z,1.98
2018-09-02T18:24:52.408Z,1.93
2018-09-02T18:27:24.964Z,1.95
2018-09-02T18:29:58.432Z,2.00
2018-09-02T18:32:30.108Z,2.33
2018-09-02T18:34:59.362Z,1.77
2018-09-02T18:37:29.020Z,2.40
2018-09-02T18:39:57.551Z,2.43
2018-09-02T18:42:26.305Z,2.30
2018-09-02T18:44:54.653Z,2.23
2018-09-02T18:47:22.903Z,2.57
2018-09-02T18:49:51.174Z,2.67
2018-09-02T18:52:19.577Z,2.63
2018-09-02T18:54:47.850Z,2.20
2018-09-02T18:57:16.351Z,2.30
2018-09-02T18:59:45.546Z,2.33
2018-09-02T19:02:14.064Z,2.07
2018-09-02T19:04:42.384Z,1.80
2018-09-02T19:07:10.716Z,1.90
2018-09-02T19:09:41.365Z,1.93
2018-09-02T19:12:09.789Z,2.08
2018-09-02T19:14:38.175Z,2.57
2018-09-02T19:17:06.637Z,2.37
2018-09-02T19:19:34.850Z,1.87
2018-09-02T19:22:04.537Z,2.33
2018-09-02T19:24:33.153Z,2.00
2018-09-02T19:27:01.598Z,2.07
2018-09-02T19:29:29.938Z,2.20
2018-09-02T19:31:58.657Z,2.27
2018-09-02T19:34:26.947Z,2.20
2018-09-02T19:36:55.227Z,2.37
2018-09-02T19:39:23.745Z,2.20
2018-09-02T19:41:52.029Z,2.40
2018-09-02T20:02:15.544Z,2.23
2018-09-02T20:04:43.964Z,2.08
2018-09-02T20:07:12.179Z,2.00
2018-09-02T20:09:40.442Z,2.47
2018-09-02T20:12:14.217Z,2.00
2018-09-02T20:14:45.513Z,2.63
2018-09-02T20:17:14.797Z,2.43
2018-09-02T20:19:46.005Z,2.50
2018-09-02T20:22:20.586Z,2.47
2018-09-02T20:24:51.922Z,2.53
2018-09-02T20:27:25.734Z,2.20
2018-09-02T20:29:58.656Z,2.17
2018-09-02T20:32:31.288Z,2.30
2018-09-02T20:35:02.485Z,2.40
2018-09-02T20:37:35.134Z,2.52
2018-09-02T20:40:05.483Z,2.57
2018-09-02T20:42:37.322Z,2.77
2018-09-02T20:45:07.592Z,2.90
2018-09-02T20:47:35.980Z,2.60
2018-09-02T20:50:04.185Z,2.53
2018-09-02T20:52:32.431Z,2.50
2018-09-02T20:55:00.790Z,2.70
2018-09-02T20:57:30.207Z,2.73
2018-09-02T20:59:58.364Z,2.80
2018-09-02T21:02:28.701Z,2.90
2018-09-02T21:04:57.553Z,2.70
2018-09-02T21:07:25.755Z,2.80
2018-09-02T21:09:54.160Z,2.77
2018-09-02T21:12:22.525Z,2.73
2018-09-02T21:14:50.849Z,3.00
2018-09-02T21:17:19.084Z,2.80
2018-09-02T21:23:03.036Z,3.07
2018-09-02T21:25:31.212Z,3.00
2018-09-02T21:27:59.476Z,2.60
2018-09-02T21:30:27.848Z,3.00
2018-09-02T21:42:36.575Z,2.77
2018-09-02T21:45:04.851Z,2.73
2018-09-02T21:47:33.065Z,2.60
2018-09-02T21:50:01.419Z,3.10
2018-09-02T21:52:29.679Z,2.83
2018-09-02T21:54:58.020Z,2.97
2018-09-02T21:57:26.361Z,2.77
2018-09-02T21:59:54.624Z,2.85
2018-09-02T22:02:39.833Z,3.37
2018-09-02T22:05:09.293Z,2.60
2018-09-02T22:07:37.557Z,2.83
2018-09-02T22:10:05.885Z,3.03
2018-09-02T22:12:34.523Z,3.10
2018-09-02T22:15:02.788Z,3.83
2018-09-02T22:17:30.983Z,3.37
2018-09-02T22:19:59.221Z,2.90
2018-09-02T22:22:27.413Z,3.13
2018-09-02T22:24:55.666Z,3.33
2018-09-02T22:27:23.975Z,3.10
2018-09-02T22:29:52.244Z,3.45
2018-09-02T22:32:20.525Z,3.40
2018-09-02T22:34:49.621Z,3.47
2018-09-02T22:37:18.082Z,3.57
2018-09-02T22:39:46.354Z,3.93
2018-09-02T22:42:14.927Z,3.57
2018-09-02T22:44:43.122Z,3.33
2018-09-02T22:47:11.291Z,2.95
2018-09-02T22:49:39.634Z,2.90
2018-09-02T22:52:07.846Z,3.63
2018-09-02T22:54:36.079Z,3.60
2018-09-02T22:57:04.267Z,3.53
2018-09-02T22:59:32.471Z,4.00
2018-09-02T23:02:00.684Z,3.10
2018-09-02T23:04:28.858Z,3.33
2018-09-02T23:06:57.072Z,3.40
2018-09-02T23:09:25.283Z,3.97
2018-09-02T23:11:53.473Z,3.50
2018-09-02T23:14:21.802Z,4.13
2018-09-02T23:16:50.012Z,3.33
2018-09-02T23:19:18.252Z,3.27
2018-09-02T23:21:46.439Z,3.40
2018-09-02T23:24:14.687Z,3.93
2018-09-02T23:26:42.951Z,3.50
2018-09-02T23:29:11.106Z,3.57
2018-09-02T23:32:38.451Z,3.37
2018-09-02T23:35:06.668Z,3.70
2018-09-02T23:37:34.901Z,3.77
2018-09-02T23:40:03.213Z,3.97
2018-09-02T23:42:31.461Z,3.67
2018-09-02T23:44:59.760Z,4.17
2018-09-02T23:47:28.083Z,3.30
2018-09-02T23:49:57.457Z,3.45
2018-09-02T23:52:25.645Z,4.00
2018-09-02T23:55:00.291Z,3.40
2018-09-02T23:57:28.543Z,3.33
2018-09-02T23:59:56.721Z,4.30
